createdAt,value
2023-04-15T00:01:37.975Z,7.60
2023-04-15T00:04:05.159Z,7.50
2023-04-15T00:06:32.018Z,7.50
2023-04-15T00:08:59.125Z,7.50
2023-04-15T00:11:26.270Z,7.60
2023-04-15T00:13:53.120Z,7.60
2023-04-15T00:16:19.952Z,7.60
2023-04-15T00:18:46.878Z,7.60
2023-04-15T00:21:13.707Z,7.60
2023-04-15T00:23:40.943Z,7.50
2023-04-15T00:26:07.732Z,7.50
2023-04-15T00:28:34.602Z,7.50
2023-04-15T00:31:03.383Z,7.60
2023-04-15T00:33:30.279Z,7.60
2023-04-15T00:35:57.574Z,7.60
2023-04-15T00:38:24.377Z,7.60
2023-04-15T00:40:51.323Z,7.60
2023-04-15T00:43:18.565Z,7.60
2023-04-15T00:45:47.099Z,7.70
2023-04-15T00:48:14.313Z,7.60
2023-04-15T00:50:41.219Z,7.70
2023-04-15T00:53:07.955Z,7.70
2023-04-15T00:55:36.150Z,7.70
2023-04-15T00:58:02.936Z,7.70
2023-04-15T01:00:31.179Z,7.70
2023-04-15T01:02:59.051Z,7.70
2023-04-15T01:05:27.049Z,7.80
2023-04-15T01:07:55.051Z,7.80
2023-04-15T01:10:22.122Z,7.80
2023-04-15T01:12:49.158Z,7.90
2023-04-15T01:15:16.138Z,7.80
2023-04-15T01:17:43.396Z,7.80
2023-04-15T01:20:12.027Z,7.80
2023-04-15T01:22:39.518Z,7.80
2023-04-15T01:25:13.282Z,7.80
2023-04-15T01:27:42.306Z,7.80
2023-04-15T01:30:10.556Z,7.80
2023-04-15T01:32:37.986Z,7.80
2023-04-15T01:35:05.229Z,7.90
2023-04-15T01:37:33.016Z,7.80
2023-04-15T01:39:59.865Z,7.80
2023-04-15T01:42:27.557Z,7.90
2023-04-15T01:44:54.803Z,7.90
2023-04-15T01:47:21.776Z,7.80
2023-04-15T01:49:48.714Z,7.90
2023-04-15T01:52:15.722Z,7.80
2023-04-15T01:54:42.627Z,7.80
2023-04-15T01:57:09.823Z,7.80
2023-04-15T01:59:37.217Z,7.90
2023-04-15T02:02:04.743Z,7.80
2023-04-15T02:04:31.814Z,7.90
2023-04-15T02:07:00.724Z,7.90
2023-04-15T02:09:27.876Z,7.90
2023-04-15T02:11:54.690Z,7.80
2023-04-15T02:14:22.086Z,7.90
2023-04-15T02:16:48.903Z,7.90
2023-04-15T02:19:16.448Z,7.80
2023-04-15T02:21:43.228Z,7.80
2023-04-15T02:24:10.135Z,7.80
2023-04-15T02:26:36.965Z,7.80
2023-04-15T02:29:04.130Z,7.80
2023-04-15T02:31:34.039Z,7.80
2023-04-15T02:34:03.012Z,7.80
2023-04-15T02:36:31.957Z,7.80
2023-04-15T02:38:59.038Z,7.80
2023-04-15T02:41:28.438Z,7.80
2023-04-15T02:43:55.917Z,7.80
2023-04-15T02:46:23.156Z,7.80
2023-04-15T02:48:51.030Z,7.80
2023-04-15T02:51:20.345Z,7.80
2023-04-15T02:53:48.535Z,7.80
2023-04-15T02:56:16.998Z,7.80
2023-04-15T02:58:45.173Z,7.80
2023-04-15T03:01:12.142Z,7.80
2023-04-15T03:03:40.082Z,7.80
2023-04-15T03:06:08.777Z,7.80
2023-04-15T03:08:36.052Z,7.80
2023-04-15T03:11:03.014Z,7.80
2023-04-15T03:13:29.853Z,7.80
2023-04-15T03:15:58.306Z,7.80
2023-04-15T03:18:25.292Z,7.80
2023-04-15T03:20:52.241Z,7.80
2023-04-15T03:23:19.131Z,7.80
2023-04-15T03:25:46.203Z,7.80
2023-04-15T03:28:14.367Z,7.90
2023-04-15T03:30:41.771Z,7.90
2023-04-15T03:33:08.605Z,7.80
2023-04-15T03:35:36.221Z,7.90
2023-04-15T03:38:03.245Z,7.90
2023-04-15T03:40:30.393Z,7.90
2023-04-15T03:42:57.337Z,7.90
2023-04-15T03:45:24.150Z,7.90
2023-04-15T03:47:51.070Z,7.90
2023-04-15T03:50:17.975Z,7.90
2023-04-15T03:52:45.747Z,7.90
2023-04-15T03:55:12.846Z,7.90
2023-04-15T03:57:39.837Z,7.90
2023-04-15T04:00:09.278Z,7.90
2023-04-15T04:02:39.080Z,8.00
2023-04-15T04:05:06.361Z,8.00
2023-04-15T04:07:33.154Z,8.00
2023-04-15T04:10:00.018Z,8.10
2023-04-15T04:12:26.837Z,8.00
2023-04-15T04:14:53.633Z,8.00
2023-04-15T04:17:20.555Z,8.00
2023-04-15T04:19:47.323Z,8.00
2023-04-15T04:22:14.184Z,8.00
2023-04-15T04:24:41.407Z,8.00
2023-04-15T04:27:08.284Z,8.10
2023-04-15T04:29:35.182Z,8.10
2023-04-15T04:32:01.992Z,8.10
2023-04-15T04:34:28.906Z,8.10
2023-04-15T04:36:55.938Z,8.10
2023-04-15T04:39:22.803Z,8.20
2023-04-15T04:41:52.497Z,8.10
2023-04-15T04:44:19.315Z,8.20
2023-04-15T04:46:46.110Z,8.20
2023-04-15T04:49:12.893Z,8.20
2023-04-15T04:51:39.709Z,8.20
2023-04-15T04:54:06.650Z,8.20
2023-04-15T04:56:34.715Z,8.20
2023-04-15T04:59:02.009Z,8.30
2023-04-15T05:01:29.035Z,8.20
2023-04-15T05:03:56.463Z,8.20
2023-04-15T05:06:23.544Z,8.30
2023-04-15T05:08:50.384Z,8.20
2023-04-15T05:11:17.289Z,8.30
2023-04-15T05:13:44.186Z,8.30
2023-04-15T05:16:11.206Z,8.30
2023-04-15T05:18:38.291Z,8.30
2023-04-15T05:21:05.495Z,8.30
2023-04-15T05:23:32.626Z,8.30
2023-04-15T05:25:59.503Z,8.30
2023-04-15T05:28:27.450Z,8.30
2023-04-15T05:30:54.602Z,8.30
2023-04-15T05:33:21.555Z,8.40
2023-04-15T05:35:48.648Z,8.30
2023-04-15T05:38:15.616Z,8.40
2023-04-15T05:40:42.521Z,8.40
2023-04-15T05:43:09.308Z,8.40
2023-04-15T05:45:36.503Z,8.50
2023-04-15T05:48:03.443Z,8.50
2023-04-15T05:50:30.498Z,8.50
2023-04-15T05:52:57.431Z,8.60
2023-04-15T05:55:24.256Z,8.60
2023-04-15T05:57:51.125Z,8.60
2023-04-15T06:00:18.109Z,8.70
2023-04-15T06:02:45.249Z,8.80
2023-04-15T06:05:12.469Z,8.80
2023-04-15T06:07:39.446Z,8.90
2023-04-15T06:10:07.285Z,9.00
2023-04-15T06:12:34.289Z,9.10
2023-04-15T06:15:01.314Z,9.20
2023-04-15T06:17:28.304Z,9.20
2023-04-15T06:19:55.852Z,9.20
2023-04-15T06:22:23.761Z,9.20
2023-04-15T06:24:51.609Z,9.30
2023-04-15T06:27:18.791Z,9.30
2023-04-15T06:29:45.675Z,9.30
2023-04-15T06:32:13.002Z,9.30
2023-04-15T06:34:39.969Z,9.40
2023-04-15T06:37:07.037Z,9.40
2023-04-15T06:39:33.887Z,9.40
2023-04-15T06:42:01.537Z,9.40
2023-04-15T06:44:29.086Z,9.50
2023-04-15T06:46:55.930Z,9.60
2023-04-15T06:49:22.828Z,9.70
2023-04-15T06:51:49.707Z,9.70
2023-04-15T06:54:16.511Z,9.80
2023-04-15T06:56:43.732Z,9.90
2023-04-15T06:59:10.716Z,10.00
2023-04-15T07:01:37.534Z,10.00
2023-04-15T07:04:04.653Z,10.00
2023-04-15T07:06:32.756Z,10.10
2023-04-15T07:09:02.843Z,10.10
2023-04-15T07:11:30.265Z,10.20
2023-04-15T07:13:58.512Z,10.10
2023-04-15T07:16:27.160Z,10.10
2023-04-15T07:18:55.958Z,10.20
2023-04-15T07:21:22.918Z,10.20
2023-04-15T07:23:49.796Z,10.20
2023-04-15T07:26:16.569Z,10.30
2023-04-15T07:28:43.495Z,10.40
2023-04-15T07:31:10.527Z,10.40
2023-04-15T07:33:37.504Z,10.40
2023-04-15T07:36:04.363Z,10.30
2023-04-15T07:38:32.699Z,10.20
2023-04-15T07:40:59.587Z,10.20
2023-04-15T07:43:26.333Z,10.10
2023-04-15T07:45:53.214Z,10.10
2023-04-15T07:48:19.997Z,10.20
2023-04-15T07:50:46.971Z,10.10
2023-04-15T07:53:14.525Z,10.10
2023-04-15T07:55:41.499Z,10.20
2023-04-15T07:58:08.339Z,10.20
2023-04-15T08:00:35.254Z,10.30
2023-04-15T08:03:02.365Z,10.10
2023-04-15T08:05:29.512Z,10.20
2023-04-15T08:07:56.527Z,10.10
2023-04-15T08:10:23.444Z,10.10
2023-04-15T08:12:50.763Z,10.00
2023-04-15T08:15:17.653Z,10.00
2023-04-15T08:17:44.721Z,10.00
2023-04-15T08:20:12.025Z,10.00
2023-04-15T08:22:39.228Z,10.00
2023-04-15T08:25:06.827Z,9.90
2023-04-15T08:27:33.677Z,9.90
2023-04-15T08:30:02.710Z,9.90
2023-04-15T08:32:31.248Z,9.90
2023-04-15T08:34:58.067Z,9.90
2023-04-15T08:37:24.835Z,9.90
2023-04-15T08:39:51.684Z,9.90
2023-04-15T08:42:27.850Z,9.90
2023-04-15T08:44:55.609Z,9.90
2023-04-15T08:47:27.245Z,9.80
2023-04-15T08:49:58.111Z,9.80
2023-04-15T08:52:28.520Z,9.80
2023-04-15T08:55:00.292Z,9.70
2023-04-15T08:57:31.457Z,9.70
2023-04-15T08:59:58.862Z,9.70
2023-04-15T09:02:27.619Z,9.70
2023-04-15T09:04:54.838Z,9.60
2023-04-15T09:07:21.813Z,9.70
2023-04-15T09:09:49.365Z,9.60
2023-04-15T09:12:17.115Z,9.60
2023-04-15T09:14:47.314Z,9.70
2023-04-15T09:17:18.494Z,9.70
2023-04-15T09:19:45.363Z,9.70
2023-04-15T09:22:12.769Z,9.70
2023-04-15T09:24:42.204Z,9.70
2023-04-15T09:27:09.323Z,9.60
2023-04-15T09:29:36.933Z,9.70
2023-04-15T09:32:14.701Z,9.70
2023-04-15T09:34:43.052Z,9.70
2023-04-15T09:37:11.186Z,9.70
2023-04-15T09:39:48.533Z,9.70
2023-04-15T09:42:17.452Z,9.70
2023-04-15T09:44:44.372Z,9.70
2023-04-15T09:47:31.376Z,9.70
2023-04-15T09:50:00.141Z,9.70
2023-04-15T09:52:27.327Z,9.60
2023-04-15T09:54:58.760Z,9.60
2023-04-15T09:57:25.803Z,9.60
2023-04-15T09:59:52.926Z,9.70
2023-04-15T10:02:21.390Z,9.70
2023-04-15T10:04:49.513Z,9.60
2023-04-15T10:07:20.620Z,9.70
2023-04-15T10:09:49.169Z,9.60
2023-04-15T10:12:20.231Z,9.60
2023-04-15T10:14:58.398Z,9.60
2023-04-15T10:19:56.254Z,9.70
2023-04-15T10:22:24.602Z,9.70
2023-04-15T10:24:52.770Z,9.60
2023-04-15T10:27:20.785Z,9.70
2023-04-15T10:29:49.388Z,9.70
2023-04-15T10:32:19.189Z,9.70
2023-04-15T10:34:48.530Z,9.80
2023-04-15T10:37:33.153Z,9.70
2023-04-15T10:39:59.971Z,9.70
2023-04-15T10:42:35.274Z,9.80
2023-04-15T10:45:02.425Z,9.80
2023-04-15T10:47:29.344Z,9.80
2023-04-15T10:50:00.976Z,9.90
2023-04-15T10:52:29.073Z,9.90
2023-04-15T10:55:23.053Z,10.00
2023-04-15T10:58:00.788Z,10.00
2023-04-15T11:00:32.602Z,10.00
2023-04-15T11:03:08.008Z,10.00
2023-04-15T11:05:52.430Z,10.00
2023-04-15T11:08:20.474Z,10.00
2023-04-15T11:10:47.185Z,10.10
2023-04-15T11:13:21.820Z,10.10
2023-04-15T11:15:49.783Z,10.10
2023-04-15T11:18:22.233Z,10.10
2023-04-15T11:20:59.289Z,10.10
2023-04-15T11:23:49.582Z,10.20
2023-04-15T11:26:16.596Z,10.10
2023-04-15T11:28:45.531Z,10.10
2023-04-15T11:31:16.427Z,10.20
2023-04-15T11:34:02.805Z,10.30
2023-04-15T11:36:31.940Z,10.40
2023-04-15T11:38:59.794Z,10.20
2023-04-15T11:41:26.633Z,10.20
2023-04-15T11:43:53.683Z,10.30
2023-04-15T11:46:21.839Z,10.30
2023-04-15T11:48:48.779Z,10.30
2023-04-15T11:51:15.696Z,10.30
2023-04-15T11:53:48.024Z,10.30
2023-04-15T11:56:19.102Z,10.30
2023-04-15T11:58:46.627Z,10.30
2023-04-15T12:01:13.980Z,10.30
2023-04-15T12:03:45.820Z,10.20
2023-04-15T12:06:21.041Z,10.30
2023-04-15T12:09:00.205Z,10.30
2023-04-15T12:11:27.224Z,10.20
2023-04-15T12:13:56.746Z,10.30
2023-04-15T12:16:25.016Z,10.30
2023-04-15T12:18:57.642Z,10.20
2023-04-15T12:21:27.937Z,10.30
2023-04-15T12:23:57.154Z,10.30
2023-04-15T12:26:29.026Z,10.30
2023-04-15T12:28:57.304Z,10.40
2023-04-15T12:31:24.360Z,10.50
2023-04-15T12:33:51.688Z,10.60
2023-04-15T12:36:18.909Z,10.50
2023-04-15T12:38:45.905Z,10.60
2023-04-15T12:41:12.949Z,10.50
2023-04-15T12:43:40.049Z,10.50
2023-04-15T12:46:08.451Z,10.50
2023-04-15T12:48:35.789Z,10.60
2023-04-15T12:51:05.119Z,10.70
2023-04-15T12:53:32.884Z,10.70
2023-04-15T12:56:00.140Z,10.70
2023-04-15T12:58:29.936Z,10.90
2023-04-15T13:00:57.495Z,10.90
2023-04-15T13:03:24.510Z,11.00
2023-04-15T13:05:52.363Z,11.10
2023-04-15T13:08:19.445Z,11.20
2023-04-15T13:10:46.841Z,11.10
2023-04-15T13:13:13.769Z,11.20
2023-04-15T13:15:40.812Z,11.10
2023-04-15T13:18:08.034Z,11.00
2023-04-15T13:20:35.097Z,11.00
2023-04-15T13:23:02.149Z,10.90
2023-04-15T13:25:29.159Z,10.90
2023-04-15T13:27:57.513Z,10.90
2023-04-15T13:30:24.459Z,10.90
2023-04-15T13:32:51.754Z,11.00
2023-04-15T13:35:18.852Z,11.10
2023-04-15T13:37:46.036Z,11.10
2023-04-15T13:40:13.055Z,11.00
2023-04-15T13:42:39.976Z,10.90
2023-04-15T13:45:07.697Z,10.90
2023-04-15T13:47:34.600Z,10.90
2023-04-15T13:50:01.543Z,10.90
2023-04-15T13:52:28.608Z,10.90
2023-04-15T13:55:08.190Z,10.90
2023-04-15T13:57:42.451Z,10.90
2023-04-15T14:00:09.931Z,10.80
2023-04-15T14:02:36.972Z,10.80
2023-04-15T14:05:04.182Z,10.80
2023-04-15T14:07:31.275Z,10.80
2023-04-15T14:09:58.407Z,10.80
2023-04-15T14:12:25.250Z,10.80
2023-04-15T14:14:52.333Z,10.80
2023-04-15T14:17:19.313Z,10.70
2023-04-15T14:19:46.565Z,10.70
2023-04-15T14:22:13.949Z,10.60
2023-04-15T14:24:41.474Z,10.60
2023-04-15T14:27:08.868Z,10.60
2023-04-15T14:29:35.896Z,10.70
2023-04-15T14:32:11.484Z,10.70
2023-04-15T14:34:39.819Z,10.60
2023-04-15T14:37:08.178Z,10.60
2023-04-15T14:39:35.298Z,10.60
2023-04-15T14:42:02.378Z,10.50
2023-04-15T14:44:29.381Z,10.50
2023-04-15T14:46:56.521Z,10.50
2023-04-15T14:49:24.013Z,10.60
2023-04-15T14:51:50.979Z,10.50
2023-04-15T14:54:17.921Z,10.60
2023-04-15T14:56:46.093Z,10.50
2023-04-15T14:59:12.859Z,10.50
2023-04-15T15:01:40.014Z,10.50
2023-04-15T15:04:07.299Z,10.50
2023-04-15T15:06:34.835Z,10.50
2023-04-15T15:09:02.169Z,10.40
2023-04-15T15:11:31.780Z,10.40
2023-04-15T15:13:58.831Z,10.40
2023-04-15T15:16:26.215Z,10.40
2023-04-15T15:18:53.380Z,10.40
2023-04-15T15:21:20.555Z,10.40
2023-04-15T15:23:48.458Z,10.40
2023-04-15T15:26:15.828Z,10.40
2023-04-15T15:28:43.027Z,10.40
2023-04-15T15:31:10.120Z,10.40
2023-04-15T15:33:37.059Z,10.40
2023-04-15T15:36:04.398Z,10.30
2023-04-15T15:38:31.451Z,10.40
2023-04-15T15:40:58.336Z,10.50
2023-04-15T15:43:25.393Z,10.50
2023-04-15T15:45:55.361Z,10.50
2023-04-15T15:48:24.062Z,10.50
2023-04-15T15:50:52.545Z,10.40
2023-04-15T15:53:21.000Z,10.40
2023-04-15T15:55:48.426Z,10.50
2023-04-15T15:58:16.060Z,10.50
2023-04-15T16:00:43.151Z,10.40
2023-04-15T16:03:10.213Z,10.40
2023-04-15T16:05:38.202Z,10.40
2023-04-15T16:08:05.752Z,10.40
2023-04-15T16:10:33.228Z,10.40
2023-04-15T16:13:00.669Z,10.40
2023-04-15T16:15:27.891Z,10.40
2023-04-15T16:17:54.920Z,10.40
2023-04-15T16:20:21.972Z,10.30
2023-04-15T16:22:48.991Z,10.30
2023-04-15T16:25:15.989Z,10.30
2023-04-15T16:27:58.908Z,10.30
2023-04-15T16:30:28.995Z,10.30
2023-04-15T16:32:56.804Z,10.30
2023-04-15T16:35:23.717Z,10.20
2023-04-15T16:37:51.002Z,10.20
2023-04-15T16:40:18.076Z,10.20
2023-04-15T16:42:45.054Z,10.20
2023-04-15T16:45:12.215Z,10.20
2023-04-15T16:47:39.727Z,10.20
2023-04-15T16:50:07.319Z,10.20
2023-04-15T16:52:34.427Z,10.20
2023-04-15T16:55:01.567Z,10.20
2023-04-15T16:57:38.169Z,10.10
2023-04-15T17:00:15.918Z,10.20
2023-04-15T17:02:43.108Z,10.10
2023-04-15T17:05:10.291Z,10.10
2023-04-15T17:07:37.271Z,10.10
2023-04-15T17:10:04.439Z,10.10
2023-04-15T17:12:31.914Z,10.10
2023-04-15T17:14:58.963Z,10.10
2023-04-15T17:17:26.135Z,10.10
2023-04-15T17:19:53.245Z,10.10
2023-04-15T17:22:20.604Z,10.10
2023-04-15T17:24:47.536Z,10.10
2023-04-15T17:27:15.035Z,10.10
2023-04-15T17:29:45.303Z,10.10
2023-04-15T17:32:12.347Z,10.10
2023-04-15T17:34:50.191Z,10.10
2023-04-15T17:37:18.586Z,10.10
2023-04-15T17:39:45.893Z,10.10
2023-04-15T17:42:13.884Z,10.00
2023-04-15T17:44:41.172Z,10.10
2023-04-15T17:47:10.179Z,10.10
2023-04-15T17:49:37.733Z,10.00
2023-04-15T17:52:04.997Z,10.00
2023-04-15T17:54:31.883Z,10.00
2023-04-15T17:56:59.431Z,10.00
2023-04-15T17:59:27.609Z,10.00
2023-04-15T18:01:54.479Z,10.00
2023-04-15T18:04:24.040Z,10.00
2023-04-15T18:06:52.948Z,10.00
2023-04-15T18:09:20.295Z,10.00
2023-04-15T18:11:48.444Z,10.00
2023-04-15T18:14:26.698Z,10.00
2023-04-15T18:17:00.837Z,10.00
2023-04-15T18:19:28.447Z,10.00
2023-04-15T18:21:55.661Z,10.00
2023-04-15T18:24:23.001Z,10.00
2023-04-15T18:26:53.018Z,9.90
2023-04-15T18:29:20.544Z,10.00
2023-04-15T18:31:47.998Z,9.90
2023-04-15T18:34:15.517Z,9.90
2023-04-15T18:36:42.700Z,9.90
2023-04-15T18:39:10.427Z,9.90
2023-04-15T18:41:37.614Z,9.90
2023-04-15T18:44:04.598Z,9.90
2023-04-15T18:46:31.734Z,9.90
2023-04-15T18:48:58.861Z,9.90
2023-04-15T18:51:29.003Z,9.90
2023-04-15T18:53:56.020Z,9.90
2023-04-15T18:56:23.141Z,9.90
2023-04-15T18:59:10.006Z,9.90
2023-04-15T19:01:37.770Z,9.90
2023-04-15T19:04:05.064Z,9.90
2023-04-15T19:06:32.012Z,9.90
2023-04-15T19:08:59.100Z,9.90
2023-04-15T19:11:26.614Z,9.90
2023-04-15T19:13:53.796Z,9.90
2023-04-15T19:16:21.150Z,9.90
2023-04-15T19:18:48.232Z,9.90
2023-04-15T19:21:15.579Z,9.80
2023-04-15T19:23:43.175Z,9.80
2023-04-15T19:26:11.610Z,9.80
2023-04-15T19:28:38.721Z,9.80
2023-04-15T19:31:06.102Z,9.80
2023-04-15T19:33:33.349Z,9.80
2023-04-15T19:36:05.890Z,9.80
2023-04-15T19:38:36.028Z,9.90
2023-04-15T19:41:02.983Z,9.80
2023-04-15T19:43:32.153Z,9.80
2023-04-15T19:45:59.296Z,9.80
2023-04-15T19:48:26.383Z,9.80
2023-04-15T19:50:53.422Z,9.80
2023-04-15T19:53:20.459Z,9.80
2023-04-15T19:55:48.532Z,9.80
2023-04-15T19:58:15.577Z,9.80
2023-04-15T20:00:42.724Z,9.80
2023-04-15T20:03:09.931Z,9.80
2023-04-15T20:05:36.997Z,9.80
2023-04-15T20:08:04.394Z,9.80
2023-04-15T20:10:32.034Z,9.80
2023-04-15T20:12:59.321Z,9.80
2023-04-15T20:15:26.566Z,9.80
2023-04-15T20:17:53.795Z,9.80
2023-04-15T20:20:21.704Z,9.80
2023-04-15T20:22:48.936Z,9.80
2023-04-15T20:25:16.272Z,9.80
2023-04-15T20:27:43.328Z,9.80
2023-04-15T20:30:10.955Z,9.70
2023-04-15T20:32:38.680Z,9.80
2023-04-15T20:35:06.998Z,9.80
2023-04-15T20:37:34.321Z,9.80
2023-04-15T20:40:01.901Z,9.70
2023-04-15T20:42:33.985Z,9.80
2023-04-15T20:45:01.307Z,9.70
2023-04-15T20:47:28.502Z,9.80
2023-04-15T20:49:55.636Z,9.80
2023-04-15T20:52:22.584Z,9.80
2023-04-15T20:54:49.899Z,9.80
2023-04-15T20:57:16.969Z,9.80
2023-04-15T20:59:44.239Z,9.80
2023-04-15T21:02:11.824Z,9.80
2023-04-15T21:04:42.099Z,9.80
2023-04-15T21:07:10.413Z,9.70
2023-04-15T21:09:41.547Z,9.80
2023-04-15T21:12:09.363Z,9.80
2023-04-15T21:14:37.376Z,9.70
2023-04-15T21:17:08.625Z,9.70
2023-04-15T21:19:37.732Z,9.70
2023-04-15T21:22:04.871Z,9.70
2023-04-15T21:24:32.723Z,9.70
2023-04-15T21:26:59.835Z,9.70
2023-04-15T21:29:26.939Z,9.70
2023-04-15T21:31:54.021Z,9.70
2023-04-15T21:34:21.408Z,9.70
2023-04-15T21:36:48.308Z,9.70
2023-04-15T21:39:16.201Z,9.70
2023-04-15T21:41:43.258Z,9.70
2023-04-15T21:44:11.178Z,9.70
2023-04-15T21:46:39.765Z,9.70
2023-04-15T21:49:07.730Z,9.70
2023-04-15T21:51:34.862Z,9.70
2023-04-15T21:54:02.020Z,9.70
2023-04-15T21:56:29.068Z,9.70
2023-04-15T21:58:57.544Z,9.70
2023-04-15T22:01:24.949Z,9.70
2023-04-15T22:03:52.547Z,9.70
2023-04-15T22:06:19.893Z,9.70
2023-04-15T22:08:56.243Z,9.60
2023-04-15T22:11:28.377Z,9.60
2023-04-15T22:13:59.397Z,9.60
2023-04-15T22:16:26.972Z,9.60
2023-04-15T22:18:54.835Z,9.60
2023-04-15T22:21:22.704Z,9.60
2023-04-15T22:23:51.964Z,9.60
2023-04-15T22:26:18.825Z,9.60
2023-04-15T22:28:46.090Z,9.60
2023-04-15T22:31:14.794Z,9.60
2023-04-15T22:33:41.854Z,9.60
2023-04-15T22:36:09.335Z,9.60
2023-04-15T22:38:36.321Z,9.60
2023-04-15T22:41:03.457Z,9.60
2023-04-15T22:43:30.635Z,9.60
2023-04-15T22:45:57.784Z,9.60
2023-04-15T22:48:24.695Z,9.60
2023-04-15T22:50:51.774Z,9.60
2023-04-15T22:53:18.986Z,9.60
2023-04-15T22:55:49.269Z,9.60
2023-04-15T22:58:17.225Z,9.60
2023-04-15T23:00:44.703Z,9.60
2023-04-15T23:03:11.861Z,9.60
2023-04-15T23:05:41.142Z,9.60
2023-04-15T23:08:08.690Z,9.60
2023-04-15T23:10:36.432Z,9.60
2023-04-15T23:13:03.456Z,9.60
2023-04-15T23:15:30.711Z,9.60
2023-04-15T23:17:57.826Z,9.60
2023-04-15T23:20:24.796Z,9.60
2023-04-15T23:22:51.801Z,9.60
2023-04-15T23:25:22.251Z,9.60
2023-04-15T23:27:49.373Z,9.60
2023-04-15T23:30:16.447Z,9.60
2023-04-15T23:32:43.637Z,9.60
2023-04-15T23:35:10.848Z,9.60
2023-04-15T23:37:37.783Z,9.60
2023-04-15T23:40:05.462Z,9.60
2023-04-15T23:42:35.312Z,9.60
2023-04-15T23:45:02.234Z,9.60
2023-04-15T23:47:29.494Z,9.60
2023-04-15T23:49:56.620Z,9.60
2023-04-15T23:52:23.798Z,9.60
2023-04-15T23:54:50.768Z,9.60
2023-04-15T23:57:18.845Z,9.60
2023-04-15T23:59:46.310Z,9.60
